sensor_id;sensor_type;location;lat;lon;timestamp;P1;durP1;ratioP1;P2;durP2;ratioP2
69596;SDS011;56802;51.184;-115.558;2022-10-15T00:01:50;8.40;;;1.60;;
69596;SDS011;56802;51.184;-115.558;2022-10-15T00:04:20;4.80;;;1.50;;
69596;SDS011;56802;51.184;-115.558;2022-10-15T00:06:49;5.10;;;1.40;;
69596;SDS011;56802;51.184;-115.558;2022-10-15T00:09:18;4.60;;;1.80;;
69596;SDS011;56802;51.184;-115.558;2022-10-15T00:11:48;4.60;;;1.50;;
69596;SDS011;56802;51.184;-115.558;2022-10-15T00:14:17;4.70;;;1.40;;
69596;SDS011;56802;51.184;-115.558;2022-10-15T00:16:46;5.10;;;1.70;;
69596;SDS011;56802;51.184;-115.558;2022-10-15T00:19:15;5.00;;;1.90;;
69596;SDS011;56802;51.184;-115.558;2022-10-15T00:21:44;5.80;;;1.80;;
69596;SDS011;56802;51.184;-115.558;2022-10-15T00:24:14;6.50;;;2.10;;
69596;SDS011;56802;51.184;-115.558;2022-10-15T00:26:43;5.30;;;1.60;;
69596;SDS011;56802;51.184;-115.558;2022-10-15T00:29:12;4.90;;;1.70;;
69596;SDS011;56802;51.184;-115.558;2022-10-15T00:31:42;5.20;;;1.60;;
69596;SDS011;56802;51.184;-115.558;2022-10-15T00:34:11;5.10;;;1.90;;
69596;SDS011;56802;51.184;-115.558;2022-10-15T00:36:40;6.00;;;1.90;;
69596;SDS011;56802;51.184;-115.558;2022-10-15T00:39:10;6.70;;;1.80;;
69596;SDS011;56802;51.184;-115.558;2022-10-15T00:41:41;5.70;;;2.10;;
69596;SDS011;56802;51.184;-115.558;2022-10-15T00:49:50;5.40;;;2.00;;
69596;SDS011;56802;51.184;-115.558;2022-10-15T00:52:31;5.30;;;1.40;;
69596;SDS011;56802;51.184;-115.558;2022-10-15T00:55:42;5.50;;;1.90;;
69596;SDS011;56802;51.184;-115.558;2022-10-15T00:58:15;5.50;;;2.00;;
69596;SDS011;56802;51.184;-115.558;2022-10-15T01:00:55;6.00;;;2.50;;
69596;SDS011;56802;51.184;-115.558;2022-10-15T01:03:24;4.70;;;1.70;;
69596;SDS011;56802;51.184;-115.558;2022-10-15T01:05:54;5.30;;;1.80;;
69596;SDS011;56802;51.184;-115.558;2022-10-15T01:08:23;6.90;;;2.00;;
69596;SDS011;56802;51.184;-115.558;2022-10-15T01:33:10;5.50;;;2.20;;
69596;SDS011;56802;51.184;-115.558;2022-10-15T01:41:48;6.20;;;2.30;;
69596;SDS011;56802;51.184;-115.558;2022-10-15T01:44:31;6.30;;;2.40;;
69596;SDS011;56802;51.184;-115.558;2022-10-15T01:47:21;5.70;;;2.20;;
69596;SDS011;56802;51.184;-115.558;2022-10-15T01:49:57;6.00;;;2.30;;
69596;SDS011;56802;51.184;-115.558;2022-10-15T01:52:31;6.10;;;2.30;;
69596;SDS011;56802;51.184;-115.558;2022-10-15T01:55:09;5.30;;;2.00;;
69596;SDS011;56802;51.184;-115.558;2022-10-15T01:57:43;5.40;;;2.10;;
69596;SDS011;56802;51.184;-115.558;2022-10-15T02:00:13;5.60;;;1.80;;
69596;SDS011;56802;51.184;-115.558;2022-10-15T02:02:43;5.30;;;2.00;;
69596;SDS011;56802;51.184;-115.558;2022-10-15T02:05:18;4.90;;;1.80;;
69596;SDS011;56802;51.184;-115.558;2022-10-15T02:08:17;4.70;;;1.80;;
69596;SDS011;56802;51.184;-115.558;2022-10-15T02:13:50;5.70;;;2.40;;
69596;SDS011;56802;51.184;-115.558;2022-10-15T02:19:21;5.90;;;2.10;;
69596;SDS011;56802;51.184;-115.558;2022-10-15T02:22:15;5.70;;;2.40;;
69596;SDS011;56802;51.184;-115.558;2022-10-15T02:25:02;6.80;;;2.70;;
69596;SDS011;56802;51.184;-115.558;2022-10-15T02:27:38;7.40;;;4.30;;
69596;SDS011;56802;51.184;-115.558;2022-10-15T02:30:10;7.30;;;3.70;;
69596;SDS011;56802;51.184;-115.558;2022-10-15T02:32:44;6.90;;;2.30;;
69596;SDS011;56802;51.184;-115.558;2022-10-15T02:35:19;7.40;;;3.70;;
69596;SDS011;56802;51.184;-115.558;2022-10-15T02:37:52;9.90;;;3.60;;
69596;SDS011;56802;51.184;-115.558;2022-10-15T02:40:26;7.40;;;2.90;;
69596;SDS011;56802;51.184;-115.558;2022-10-15T02:42:56;9.50;;;4.40;;
69596;SDS011;56802;51.184;-115.558;2022-10-15T02:45:27;10.40;;;4.70;;
69596;SDS011;56802;51.184;-115.558;2022-10-15T02:47:57;7.50;;;2.90;;
69596;SDS011;56802;51.184;-115.558;2022-10-15T02:50:25;6.30;;;3.00;;
69596;SDS011;56802;51.184;-115.558;2022-10-15T02:52:54;6.60;;;2.70;;
69596;SDS011;56802;51.184;-115.558;2022-10-15T02:55:23;8.00;;;4.20;;
69596;SDS011;56802;51.184;-115.558;2022-10-15T02:57:52;10.30;;;4.20;;
69596;SDS011;56802;51.184;-115.558;2022-10-15T03:00:22;7.00;;;3.30;;
69596;SDS011;56802;51.184;-115.558;2022-10-15T03:02:51;9.10;;;4.20;;
69596;SDS011;56802;51.184;-115.558;2022-10-15T03:05:20;9.70;;;5.00;;
69596;SDS011;56802;51.184;-115.558;2022-10-15T03:07:49;11.70;;;4.80;;
69596;SDS011;56802;51.184;-115.558;2022-10-15T03:10:20;12.00;;;4.60;;
69596;SDS011;56802;51.184;-115.558;2022-10-15T03:12:49;9.00;;;4.20;;
69596;SDS011;56802;51.184;-115.558;2022-10-15T03:15:18;9.80;;;4.10;;
69596;SDS011;56802;51.184;-115.558;2022-10-15T03:17:47;7.70;;;2.40;;
69596;SDS011;56802;51.184;-115.558;2022-10-15T03:20:16;9.10;;;3.30;;
69596;SDS011;56802;51.184;-115.558;2022-10-15T03:22:45;10.10;;;3.40;;
69596;SDS011;56802;51.184;-115.558;2022-10-15T03:25:15;8.30;;;3.80;;
69596;SDS011;56802;51.184;-115.558;2022-10-15T03:27:43;7.20;;;3.30;;
69596;SDS011;56802;51.184;-115.558;2022-10-15T03:30:13;5.80;;;2.40;;
69596;SDS011;56802;51.184;-115.558;2022-10-15T03:32:42;8.80;;;3.70;;
69596;SDS011;56802;51.184;-115.558;2022-10-15T03:35:12;8.70;;;3.70;;
69596;SDS011;56802;51.184;-115.558;2022-10-15T03:37:41;8.20;;;4.40;;
69596;SDS011;56802;51.184;-115.558;2022-10-15T03:40:10;7.00;;;3.50;;
69596;SDS011;56802;51.184;-115.558;2022-10-15T03:42:40;6.20;;;2.80;;
69596;SDS011;56802;51.184;-115.558;2022-10-15T03:45:10;7.70;;;2.90;;
69596;SDS011;56802;51.184;-115.558;2022-10-15T03:47:39;6.70;;;2.60;;
69596;SDS011;56802;51.184;-115.558;2022-10-15T03:50:08;5.70;;;1.90;;
69596;SDS011;56802;51.184;-115.558;2022-10-15T03:52:37;5.40;;;2.10;;
69596;SDS011;56802;51.184;-115.558;2022-10-15T03:55:09;6.80;;;2.30;;
69596;SDS011;56802;51.184;-115.558;2022-10-15T03:57:39;6.10;;;2.10;;
69596;SDS011;56802;51.184;-115.558;2022-10-15T04:00:10;7.00;;;2.40;;
69596;SDS011;56802;51.184;-115.558;2022-10-15T04:02:41;6.40;;;2.30;;
69596;SDS011;56802;51.184;-115.558;2022-10-15T04:05:10;7.30;;;3.20;;
69596;SDS011;56802;51.184;-115.558;2022-10-15T04:07:39;6.50;;;2.70;;
69596;SDS011;56802;51.184;-115.558;2022-10-15T04:10:10;5.90;;;2.40;;
69596;SDS011;56802;51.184;-115.558;2022-10-15T04:12:39;7.10;;;2.60;;
69596;SDS011;56802;51.184;-115.558;2022-10-15T04:15:11;5.90;;;2.40;;
69596;SDS011;56802;51.184;-115.558;2022-10-15T04:17:44;5.70;;;2.40;;
69596;SDS011;56802;51.184;-115.558;2022-10-15T04:20:13;6.00;;;2.10;;
69596;SDS011;56802;51.184;-115.558;2022-10-15T04:22:42;5.70;;;2.30;;
69596;SDS011;56802;51.184;-115.558;2022-10-15T04:25:11;7.30;;;2.40;;
69596;SDS011;56802;51.184;-115.558;2022-10-15T04:27:40;6.70;;;2.90;;
69596;SDS011;56802;51.184;-115.558;2022-10-15T04:30:12;7.80;;;3.40;;
69596;SDS011;56802;51.184;-115.558;2022-10-15T04:32:42;7.80;;;3.00;;
69596;SDS011;56802;51.184;-115.558;2022-10-15T04:35:11;7.40;;;3.60;;
69596;SDS011;56802;51.184;-115.558;2022-10-15T04:37:40;8.60;;;3.20;;
69596;SDS011;56802;51.184;-115.558;2022-10-15T04:40:12;7.60;;;3.20;;
69596;SDS011;56802;51.184;-115.558;2022-10-15T04:42:42;7.80;;;3.30;;
69596;SDS011;56802;51.184;-115.558;2022-10-15T04:45:11;8.40;;;3.70;;
69596;SDS011;56802;51.184;-115.558;2022-10-15T04:47:40;6.90;;;3.40;;
69596;SDS011;56802;51.184;-115.558;2022-10-15T04:50:09;8.80;;;4.00;;
69596;SDS011;56802;51.184;-115.558;2022-10-15T04:52:38;10.70;;;5.40;;
69596;SDS011;56802;51.184;-115.558;2022-10-15T04:55:07;11.00;;;5.40;;
69596;SDS011;56802;51.184;-115.558;2022-10-15T04:57:37;13.80;;;6.20;;
69596;SDS011;56802;51.184;-115.558;2022-10-15T05:00:07;11.60;;;5.60;;
69596;SDS011;56802;51.184;-115.558;2022-10-15T05:02:41;13.60;;;6.50;;
69596;SDS011;56802;51.184;-115.558;2022-10-15T05:05:10;13.80;;;5.50;;
69596;SDS011;56802;51.184;-115.558;2022-10-15T05:07:42;9.80;;;4.10;;
69596;SDS011;56802;51.184;-115.558;2022-10-15T05:10:11;7.20;;;3.40;;
69596;SDS011;56802;51.184;-115.558;2022-10-15T05:12:40;8.90;;;3.70;;
69596;SDS011;56802;51.184;-115.558;2022-10-15T05:15:10;8.80;;;4.20;;
69596;SDS011;56802;51.184;-115.558;2022-10-15T05:17:39;7.70;;;3.70;;
69596;SDS011;56802;51.184;-115.558;2022-10-15T05:20:09;9.00;;;3.50;;
69596;SDS011;56802;51.184;-115.558;2022-10-15T05:22:38;9.10;;;3.50;;
69596;SDS011;56802;51.184;-115.558;2022-10-15T05:25:08;8.00;;;3.80;;
69596;SDS011;56802;51.184;-115.558;2022-10-15T05:27:38;8.00;;;4.00;;
69596;SDS011;56802;51.184;-115.558;2022-10-15T05:30:10;8.70;;;4.30;;
69596;SDS011;56802;51.184;-115.558;2022-10-15T05:32:39;9.20;;;4.60;;
69596;SDS011;56802;51.184;-115.558;2022-10-15T05:35:08;8.90;;;4.20;;
69596;SDS011;56802;51.184;-115.558;2022-10-15T05:37:38;11.10;;;4.90;;
69596;SDS011;56802;51.184;-115.558;2022-10-15T05:40:08;9.40;;;4.80;;
69596;SDS011;56802;51.184;-115.558;2022-10-15T05:42:37;8.30;;;3.90;;
69596;SDS011;56802;51.184;-115.558;2022-10-15T05:45:07;9.60;;;4.00;;
69596;SDS011;56802;51.184;-115.558;2022-10-15T05:47:36;8.60;;;3.30;;
69596;SDS011;56802;51.184;-115.558;2022-10-15T05:50:05;9.60;;;3.80;;
69596;SDS011;56802;51.184;-115.558;2022-10-15T05:52:38;7.20;;;3.20;;
69596;SDS011;56802;51.184;-115.558;2022-10-15T05:55:09;6.90;;;3.20;;
69596;SDS011;56802;51.184;-115.558;2022-10-15T05:57:39;6.60;;;2.60;;
69596;SDS011;56802;51.184;-115.558;2022-10-15T06:00:08;8.60;;;3.00;;
69596;SDS011;56802;51.184;-115.558;2022-10-15T06:02:38;6.40;;;2.70;;
69596;SDS011;56802;51.184;-115.558;2022-10-15T06:05:08;6.40;;;2.40;;
69596;SDS011;56802;51.184;-115.558;2022-10-15T06:07:37;6.70;;;2.70;;
69596;SDS011;56802;51.184;-115.558;2022-10-15T06:10:06;6.20;;;2.30;;
69596;SDS011;56802;51.184;-115.558;2022-10-15T06:12:36;6.90;;;2.60;;
69596;SDS011;56802;51.184;-115.558;2022-10-15T06:15:06;7.40;;;2.50;;
69596;SDS011;56802;51.184;-115.558;2022-10-15T06:17:36;7.60;;;4.30;;
69596;SDS011;56802;51.184;-115.558;2022-10-15T06:20:07;7.80;;;3.20;;
69596;SDS011;56802;51.184;-115.558;2022-10-15T06:22:36;8.00;;;3.30;;
69596;SDS011;56802;51.184;-115.558;2022-10-15T06:25:06;8.10;;;3.30;;
69596;SDS011;56802;51.184;-115.558;2022-10-15T06:27:35;8.80;;;4.10;;
69596;SDS011;56802;51.184;-115.558;2022-10-15T06:30:05;7.30;;;3.20;;
69596;SDS011;56802;51.184;-115.558;2022-10-15T06:32:35;7.00;;;3.50;;
69596;SDS011;56802;51.184;-115.558;2022-10-15T06:35:05;7.50;;;3.80;;
69596;SDS011;56802;51.184;-115.558;2022-10-15T06:37:34;7.70;;;3.10;;
69596;SDS011;56802;51.184;-115.558;2022-10-15T06:40:03;8.90;;;4.00;;
69596;SDS011;56802;51.184;-115.558;2022-10-15T06:42:32;7.80;;;3.10;;
69596;SDS011;56802;51.184;-115.558;2022-10-15T06:45:02;8.00;;;3.10;;
69596;SDS011;56802;51.184;-115.558;2022-10-15T06:47:32;6.00;;;2.50;;
69596;SDS011;56802;51.184;-115.558;2022-10-15T06:50:02;7.90;;;2.80;;
69596;SDS011;56802;51.184;-115.558;2022-10-15T06:52:33;7.00;;;2.40;;
69596;SDS011;56802;51.184;-115.558;2022-10-15T06:55:03;6.60;;;2.70;;
69596;SDS011;56802;51.184;-115.558;2022-10-15T06:57:32;6.30;;;2.40;;
69596;SDS011;56802;51.184;-115.558;2022-10-15T07:00:01;7.00;;;2.50;;
69596;SDS011;56802;51.184;-115.558;2022-10-15T07:02:33;7.10;;;2.40;;
69596;SDS011;56802;51.184;-115.558;2022-10-15T07:05:03;7.10;;;2.20;;
69596;SDS011;56802;51.184;-115.558;2022-10-15T07:07:33;6.60;;;2.20;;
69596;SDS011;56802;51.184;-115.558;2022-10-15T07:10:03;5.70;;;2.20;;
69596;SDS011;56802;51.184;-115.558;2022-10-15T07:12:32;6.70;;;2.50;;
69596;SDS011;56802;51.184;-115.558;2022-10-15T07:15:02;7.00;;;2.00;;
69596;SDS011;56802;51.184;-115.558;2022-10-15T07:17:34;6.90;;;2.40;;
69596;SDS011;56802;51.184;-115.558;2022-10-15T07:20:03;5.50;;;2.10;;
69596;SDS011;56802;51.184;-115.558;2022-10-15T07:22:33;7.30;;;2.20;;
69596;SDS011;56802;51.184;-115.558;2022-10-15T07:25:02;5.60;;;1.90;;
69596;SDS011;56802;51.184;-115.558;2022-10-15T07:27:32;6.00;;;2.10;;
69596;SDS011;56802;51.184;-115.558;2022-10-15T07:30:01;5.40;;;1.90;;
69596;SDS011;56802;51.184;-115.558;2022-10-15T07:32:30;6.70;;;2.40;;
69596;SDS011;56802;51.184;-115.558;2022-10-15T07:34:59;8.80;;;2.70;;
69596;SDS011;56802;51.184;-115.558;2022-10-15T07:37:29;7.20;;;2.30;;
69596;SDS011;56802;51.184;-115.558;2022-10-15T07:39:58;5.90;;;1.90;;
69596;SDS011;56802;51.184;-115.558;2022-10-15T07:42:28;6.60;;;2.10;;
69596;SDS011;56802;51.184;-115.558;2022-10-15T07:44:57;5.70;;;2.00;;
69596;SDS011;56802;51.184;-115.558;2022-10-15T07:47:26;7.00;;;1.80;;
69596;SDS011;56802;51.184;-115.558;2022-10-15T07:49:55;7.00;;;2.40;;
69596;SDS011;56802;51.184;-115.558;2022-10-15T07:52:24;5.50;;;1.70;;
69596;SDS011;56802;51.184;-115.558;2022-10-15T07:54:53;5.40;;;1.90;;
69596;SDS011;56802;51.184;-115.558;2022-10-15T07:57:22;5.30;;;1.90;;
69596;SDS011;56802;51.184;-115.558;2022-10-15T07:59:51;7.40;;;2.20;;
69596;SDS011;56802;51.184;-115.558;2022-10-15T08:02:20;7.60;;;2.10;;
69596;SDS011;56802;51.184;-115.558;2022-10-15T08:04:50;8.70;;;2.00;;
69596;SDS011;56802;51.184;-115.558;2022-10-15T08:07:19;6.00;;;1.80;;
69596;SDS011;56802;51.184;-115.558;2022-10-15T08:09:48;5.90;;;1.70;;
69596;SDS011;56802;51.184;-115.558;2022-10-15T08:12:17;5.50;;;2.00;;
69596;SDS011;56802;51.184;-115.558;2022-10-15T08:14:46;5.90;;;2.10;;
69596;SDS011;56802;51.184;-115.558;2022-10-15T08:17:16;5.70;;;1.80;;
69596;SDS011;56802;51.184;-115.558;2022-10-15T08:19:46;7.00;;;2.10;;
69596;SDS011;56802;51.184;-115.558;2022-10-15T08:22:14;6.50;;;2.00;;
69596;SDS011;56802;51.184;-115.558;2022-10-15T08:24:43;5.10;;;1.80;;
69596;SDS011;56802;51.184;-115.558;2022-10-15T08:27:12;8.60;;;2.10;;
69596;SDS011;56802;51.184;-115.558;2022-10-15T08:29:41;7.10;;;2.10;;
69596;SDS011;56802;51.184;-115.558;2022-10-15T08:32:11;5.60;;;2.10;;
69596;SDS011;56802;51.184;-115.558;2022-10-15T08:34:41;6.10;;;1.70;;
69596;SDS011;56802;51.184;-115.558;2022-10-15T08:37:10;6.00;;;2.00;;
69596;SDS011;56802;51.184;-115.558;2022-10-15T08:39:44;5.40;;;1.80;;
69596;SDS011;56802;51.184;-115.558;2022-10-15T08:42:30;6.20;;;1.90;;
69596;SDS011;56802;51.184;-115.558;2022-10-15T08:45:09;5.80;;;2.00;;
69596;SDS011;56802;51.184;-115.558;2022-10-15T08:53:43;5.60;;;1.70;;
69596;SDS011;56802;51.184;-115.558;2022-10-15T08:56:39;6.30;;;1.90;;
69596;SDS011;56802;51.184;-115.558;2022-10-15T08:59:33;4.60;;;1.30;;
69596;SDS011;56802;51.184;-115.558;2022-10-15T09:08:35;5.30;;;1.80;;
69596;SDS011;56802;51.184;-115.558;2022-10-15T09:11:22;6.70;;;2.30;;
69596;SDS011;56802;51.184;-115.558;2022-10-15T09:13:57;4.90;;;1.40;;
69596;SDS011;56802;51.184;-115.558;2022-10-15T09:16:29;6.50;;;1.90;;
69596;SDS011;56802;51.184;-115.558;2022-10-15T09:19:12;5.70;;;1.90;;
69596;SDS011;56802;51.184;-115.558;2022-10-15T09:21:46;5.60;;;1.70;;
69596;SDS011;56802;51.184;-115.558;2022-10-15T09:24:22;5.80;;;1.70;;
69596;SDS011;56802;51.184;-115.558;2022-10-15T09:27:07;7.60;;;2.10;;
69596;SDS011;56802;51.184;-115.558;2022-10-15T09:29:49;5.60;;;2.20;;
69596;SDS011;56802;51.184;-115.558;2022-10-15T09:36:07;7.20;;;2.20;;
69596;SDS011;56802;51.184;-115.558;2022-10-15T09:42:57;5.40;;;1.90;;
69596;SDS011;56802;51.184;-115.558;2022-10-15T09:45:13;7.20;;;2.00;;
69596;SDS011;56802;51.184;-115.558;2022-10-15T09:47:43;6.10;;;2.10;;
69596;SDS011;56802;51.184;-115.558;2022-10-15T09:50:13;5.50;;;1.90;;
69596;SDS011;56802;51.184;-115.558;2022-10-15T09:56:08;5.90;;;1.90;;
69596;SDS011;56802;51.184;-115.558;2022-10-15T09:58:55;5.10;;;1.70;;
69596;SDS011;56802;51.184;-115.558;2022-10-15T10:01:30;6.40;;;1.90;;
69596;SDS011;56802;51.184;-115.558;2022-10-15T10:04:19;5.90;;;1.80;;
69596;SDS011;56802;51.184;-115.558;2022-10-15T10:06:52;4.80;;;1.70;;
69596;SDS011;56802;51.184;-115.558;2022-10-15T10:09:30;5.30;;;1.70;;
69596;SDS011;56802;51.184;-115.558;2022-10-15T10:12:24;5.30;;;1.80;;
69596;SDS011;56802;51.184;-115.558;2022-10-15T10:14:58;5.50;;;2.10;;
69596;SDS011;56802;51.184;-115.558;2022-10-15T10:17:32;5.60;;;1.70;;
69596;SDS011;56802;51.184;-115.558;2022-10-15T10:20:16;5.10;;;1.80;;
69596;SDS011;56802;51.184;-115.558;2022-10-15T10:25:41;6.70;;;1.90;;
69596;SDS011;56802;51.184;-115.558;2022-10-15T10:30:52;5.40;;;1.80;;
69596;SDS011;56802;51.184;-115.558;2022-10-15T10:33:44;5.40;;;1.80;;
69596;SDS011;56802;51.184;-115.558;2022-10-15T10:36:30;5.50;;;1.70;;
69596;SDS011;56802;51.184;-115.558;2022-10-15T10:39:26;5.40;;;1.80;;
69596;SDS011;56802;51.184;-115.558;2022-10-15T10:42:05;5.20;;;1.90;;
69596;SDS011;56802;51.184;-115.558;2022-10-15T10:44:39;5.60;;;1.60;;
69596;SDS011;56802;51.184;-115.558;2022-10-15T10:47:18;4.90;;;1.60;;
69596;SDS011;56802;51.184;-115.558;2022-10-15T10:49:52;5.10;;;1.70;;
69596;SDS011;56802;51.184;-115.558;2022-10-15T10:52:31;5.20;;;1.80;;
69596;SDS011;56802;51.184;-115.558;2022-10-15T10:55:06;5.30;;;1.50;;
69596;SDS011;56802;51.184;-115.558;2022-10-15T10:57:56;6.00;;;2.00;;
69596;SDS011;56802;51.184;-115.558;2022-10-15T11:00:42;5.80;;;2.00;;
69596;SDS011;56802;51.184;-115.558;2022-10-15T11:03:38;6.90;;;1.90;;
69596;SDS011;56802;51.184;-115.558;2022-10-15T11:06:38;5.30;;;1.90;;
69596;SDS011;56802;51.184;-115.558;2022-10-15T11:14:31;5.50;;;1.60;;
69596;SDS011;56802;51.184;-115.558;2022-10-15T11:20:56;4.70;;;1.40;;
69596;SDS011;56802;51.184;-115.558;2022-10-15T11:27:34;6.10;;;1.90;;
69596;SDS011;56802;51.184;-115.558;2022-10-15T11:42:50;6.40;;;1.70;;
69596;SDS011;56802;51.184;-115.558;2022-10-15T11:54:52;5.50;;;1.90;;
69596;SDS011;56802;51.184;-115.558;2022-10-15T11:57:36;5.60;;;1.40;;
69596;SDS011;56802;51.184;-115.558;2022-10-15T12:03:16;5.50;;;1.80;;
69596;SDS011;56802;51.184;-115.558;2022-10-15T12:06:26;5.40;;;1.80;;
69596;SDS011;56802;51.184;-115.558;2022-10-15T12:09:02;6.10;;;1.50;;
69596;SDS011;56802;51.184;-115.558;2022-10-15T12:11:52;6.40;;;1.70;;
69596;SDS011;56802;51.184;-115.558;2022-10-15T12:14:49;7.00;;;1.70;;
69596;SDS011;56802;51.184;-115.558;2022-10-15T12:17:49;5.80;;;1.70;;
69596;SDS011;56802;51.184;-115.558;2022-10-15T12:20:26;6.00;;;1.70;;
69596;SDS011;56802;51.184;-115.558;2022-10-15T12:22:58;5.20;;;1.60;;
69596;SDS011;56802;51.184;-115.558;2022-10-15T12:30:36;5.40;;;1.90;;
69596;SDS011;56802;51.184;-115.558;2022-10-15T12:39:23;5.60;;;1.80;;
69596;SDS011;56802;51.184;-115.558;2022-10-15T12:42:36;6.60;;;1.70;;
69596;SDS011;56802;51.184;-115.558;2022-10-15T12:45:24;6.70;;;1.80;;
69596;SDS011;56802;51.184;-115.558;2022-10-15T12:50:45;6.00;;;1.90;;
69596;SDS011;56802;51.184;-115.558;2022-10-15T12:53:35;6.70;;;1.60;;
69596;SDS011;56802;51.184;-115.558;2022-10-15T12:58:50;5.50;;;1.70;;
69596;SDS011;56802;51.184;-115.558;2022-10-15T13:06:22;5.10;;;1.80;;
69596;SDS011;56802;51.184;-115.558;2022-10-15T13:09:05;5.20;;;1.50;;
69596;SDS011;56802;51.184;-115.558;2022-10-15T13:11:50;5.70;;;2.10;;
69596;SDS011;56802;51.184;-115.558;2022-10-15T13:17:17;6.90;;;1.90;;
69596;SDS011;56802;51.184;-115.558;2022-10-15T13:22:33;5.80;;;1.90;;
69596;SDS011;56802;51.184;-115.558;2022-10-15T13:25:13;5.70;;;2.00;;
69596;SDS011;56802;51.184;-115.558;2022-10-15T13:27:43;5.50;;;1.90;;
69596;SDS011;56802;51.184;-115.558;2022-10-15T13:30:14;6.10;;;1.90;;
69596;SDS011;56802;51.184;-115.558;2022-10-15T13:32:53;5.00;;;1.60;;
69596;SDS011;56802;51.184;-115.558;2022-10-15T13:35:37;5.40;;;1.70;;
69596;SDS011;56802;51.184;-115.558;2022-10-15T13:38:18;5.70;;;2.00;;
69596;SDS011;56802;51.184;-115.558;2022-10-15T13:40:51;5.40;;;2.00;;
69596;SDS011;56802;51.184;-115.558;2022-10-15T13:43:23;5.40;;;2.00;;
69596;SDS011;56802;51.184;-115.558;2022-10-15T13:49:10;6.00;;;1.70;;
69596;SDS011;56802;51.184;-115.558;2022-10-15T13:51:43;6.50;;;1.90;;
69596;SDS011;56802;51.184;-115.558;2022-10-15T13:54:28;5.50;;;1.80;;
69596;SDS011;56802;51.184;-115.558;2022-10-15T13:56:59;7.00;;;2.10;;
69596;SDS011;56802;51.184;-115.558;2022-10-15T13:59:30;5.10;;;1.90;;
69596;SDS011;56802;51.184;-115.558;2022-10-15T14:02:01;5.80;;;1.80;;
69596;SDS011;56802;51.184;-115.558;2022-10-15T14:04:31;5.10;;;1.50;;
69596;SDS011;56802;51.184;-115.558;2022-10-15T14:07:15;5.60;;;1.90;;
69596;SDS011;56802;51.184;-115.558;2022-10-15T14:09:52;5.30;;;1.20;;
69596;SDS011;56802;51.184;-115.558;2022-10-15T14:12:22;6.00;;;1.80;;
69596;SDS011;56802;51.184;-115.558;2022-10-15T14:14:51;5.60;;;1.90;;
69596;SDS011;56802;51.184;-115.558;2022-10-15T14:17:24;5.90;;;1.90;;
69596;SDS011;56802;51.184;-115.558;2022-10-15T14:20:00;5.10;;;1.60;;
69596;SDS011;56802;51.184;-115.558;2022-10-15T14:22:52;5.50;;;1.60;;
69596;SDS011;56802;51.184;-115.558;2022-10-15T14:25:23;6.00;;;2.00;;
69596;SDS011;56802;51.184;-115.558;2022-10-15T14:27:53;5.40;;;1.70;;
69596;SDS011;56802;51.184;-115.558;2022-10-15T14:30:30;6.30;;;1.90;;
69596;SDS011;56802;51.184;-115.558;2022-10-15T14:33:40;5.80;;;2.00;;
69596;SDS011;56802;51.184;-115.558;2022-10-15T14:36:30;6.10;;;2.00;;
69596;SDS011;56802;51.184;-115.558;2022-10-15T14:42:21;5.90;;;1.90;;
69596;SDS011;56802;51.184;-115.558;2022-10-15T14:44:55;5.20;;;1.80;;
69596;SDS011;56802;51.184;-115.558;2022-10-15T14:47:37;6.70;;;1.70;;
69596;SDS011;56802;51.184;-115.558;2022-10-15T14:50:09;5.10;;;1.50;;
69596;SDS011;56802;51.184;-115.558;2022-10-15T14:52:45;5.90;;;1.80;;
69596;SDS011;56802;51.184;-115.558;2022-10-15T14:55:27;5.50;;;1.90;;
69596;SDS011;56802;51.184;-115.558;2022-10-15T14:58:10;6.30;;;1.80;;
69596;SDS011;56802;51.184;-115.558;2022-10-15T15:00:47;6.00;;;2.10;;
69596;SDS011;56802;51.184;-115.558;2022-10-15T15:03:27;6.00;;;1.80;;
69596;SDS011;56802;51.184;-115.558;2022-10-15T15:06:06;8.20;;;2.20;;
69596;SDS011;56802;51.184;-115.558;2022-10-15T15:08:36;6.70;;;2.00;;
69596;SDS011;56802;51.184;-115.558;2022-10-15T15:11:18;6.40;;;2.10;;
69596;SDS011;56802;51.184;-115.558;2022-10-15T15:13:50;6.00;;;2.00;;
69596;SDS011;56802;51.184;-115.558;2022-10-15T15:16:21;5.70;;;1.90;;
69596;SDS011;56802;51.184;-115.558;2022-10-15T15:18:50;7.80;;;2.60;;
69596;SDS011;56802;51.184;-115.558;2022-10-15T15:21:21;6.60;;;2.60;;
69596;SDS011;56802;51.184;-115.558;2022-10-15T15:23:51;6.20;;;2.00;;
69596;SDS011;56802;51.184;-115.558;2022-10-15T15:26:21;6.10;;;1.90;;
69596;SDS011;56802;51.184;-115.558;2022-10-15T15:28:51;5.80;;;1.90;;
69596;SDS011;56802;51.184;-115.558;2022-10-15T15:31:21;5.40;;;2.00;;
69596;SDS011;56802;51.184;-115.558;2022-10-15T15:33:50;6.90;;;2.00;;
69596;SDS011;56802;51.184;-115.558;2022-10-15T15:36:19;5.30;;;1.80;;
69596;SDS011;56802;51.184;-115.558;2022-10-15T15:38:50;8.00;;;2.10;;
69596;SDS011;56802;51.184;-115.558;2022-10-15T15:41:21;9.00;;;1.80;;
69596;SDS011;56802;51.184;-115.558;2022-10-15T15:43:52;6.80;;;2.30;;
69596;SDS011;56802;51.184;-115.558;2022-10-15T15:46:24;5.90;;;1.80;;
69596;SDS011;56802;51.184;-115.558;2022-10-15T15:48:53;6.20;;;1.80;;
69596;SDS011;56802;51.184;-115.558;2022-10-15T15:51:27;5.90;;;1.80;;
69596;SDS011;56802;51.184;-115.558;2022-10-15T15:53:58;5.40;;;1.80;;
69596;SDS011;56802;51.184;-115.558;2022-10-15T15:56:29;6.00;;;2.00;;
69596;SDS011;56802;51.184;-115.558;2022-10-15T15:58:59;6.70;;;2.40;;
69596;SDS011;56802;51.184;-115.558;2022-10-15T16:01:28;6.30;;;2.00;;
69596;SDS011;56802;51.184;-115.558;2022-10-15T16:03:58;5.50;;;1.70;;
69596;SDS011;56802;51.184;-115.558;2022-10-15T16:06:27;5.90;;;2.20;;
69596;SDS011;56802;51.184;-115.558;2022-10-15T16:08:57;6.30;;;2.20;;
69596;SDS011;56802;51.184;-115.558;2022-10-15T16:11:26;5.80;;;1.90;;
69596;SDS011;56802;51.184;-115.558;2022-10-15T16:13:56;5.90;;;2.00;;
69596;SDS011;56802;51.184;-115.558;2022-10-15T16:16:25;7.20;;;2.20;;
69596;SDS011;56802;51.184;-115.558;2022-10-15T16:18:55;5.60;;;1.80;;
69596;SDS011;56802;51.184;-115.558;2022-10-15T16:21:25;5.40;;;1.70;;
69596;SDS011;56802;51.184;-115.558;2022-10-15T16:23:55;5.90;;;2.20;;
69596;SDS011;56802;51.184;-115.558;2022-10-15T16:26:25;7.20;;;2.10;;
69596;SDS011;56802;51.184;-115.558;2022-10-15T16:28:54;5.50;;;1.90;;
69596;SDS011;56802;51.184;-115.558;2022-10-15T16:31:26;5.60;;;1.60;;
69596;SDS011;56802;51.184;-115.558;2022-10-15T16:33:57;5.00;;;1.80;;
69596;SDS011;56802;51.184;-115.558;2022-10-15T16:36:26;5.50;;;2.10;;
69596;SDS011;56802;51.184;-115.558;2022-10-15T16:38:55;4.70;;;1.50;;
69596;SDS011;56802;51.184;-115.558;2022-10-15T16:41:25;5.70;;;1.90;;
69596;SDS011;56802;51.184;-115.558;2022-10-15T16:43:54;5.40;;;1.90;;
69596;SDS011;56802;51.184;-115.558;2022-10-15T16:46:23;5.80;;;2.20;;
69596;SDS011;56802;51.184;-115.558;2022-10-15T16:48:54;5.70;;;2.20;;
69596;SDS011;56802;51.184;-115.558;2022-10-15T16:51:26;5.30;;;1.90;;
69596;SDS011;56802;51.184;-115.558;2022-10-15T16:54:00;5.50;;;2.00;;
69596;SDS011;56802;51.184;-115.558;2022-10-15T16:56:31;5.70;;;2.10;;
69596;SDS011;56802;51.184;-115.558;2022-10-15T16:59:01;6.30;;;2.20;;
69596;SDS011;56802;51.184;-115.558;2022-10-15T17:01:30;5.40;;;2.10;;
69596;SDS011;56802;51.184;-115.558;2022-10-15T17:03:59;5.20;;;1.90;;
69596;SDS011;56802;51.184;-115.558;2022-10-15T17:06:30;5.30;;;2.10;;